sensor_id;sensor_type;location;lat;lon;timestamp;temperature;humidity
65038;DHT22;51605;47.040;15.294;2023-07-13T00:00:21;24.70;47.10
65038;DHT22;51605;47.040;15.294;2023-07-13T00:02:47;24.80;47.00
65038;DHT22;51605;47.040;15.294;2023-07-13T00:05:13;24.70;47.00
65038;DHT22;51605;47.040;15.294;2023-07-13T00:07:38;24.70;46.90
65038;DHT22;51605;47.040;15.294;2023-07-13T00:10:04;24.70;47.00
65038;DHT22;51605;47.040;15.294;2023-07-13T00:12:31;24.70;47.10
65038;DHT22;51605;47.040;15.294;2023-07-13T00:14:57;24.70;47.00
65038;DHT22;51605;47.040;15.294;2023-07-13T00:17:23;24.70;47.10
65038;DHT22;51605;47.040;15.294;2023-07-13T00:19:49;24.70;47.10
65038;DHT22;51605;47.040;15.294;2023-07-13T00:22:15;24.70;47.10
65038;DHT22;51605;47.040;15.294;2023-07-13T00:24:41;24.70;47.10
65038;DHT22;51605;47.040;15.294;2023-07-13T00:27:08;24.70;47.00
65038;DHT22;51605;47.040;15.294;2023-07-13T00:29:33;24.70;47.00
65038;DHT22;51605;47.040;15.294;2023-07-13T00:31:59;24.70;48.00
65038;DHT22;51605;47.040;15.294;2023-07-13T00:34:25;24.80;47.00
65038;DHT22;51605;47.040;15.294;2023-07-13T00:36:51;24.80;47.00
65038;DHT22;51605;47.040;15.294;2023-07-13T00:39:17;24.70;46.80
65038;DHT22;51605;47.040;15.294;2023-07-13T00:41:42;24.70;47.00
65038;DHT22;51605;47.040;15.294;2023-07-13T00:44:13;24.80;47.00
65038;DHT22;51605;47.040;15.294;2023-07-13T00:46:39;24.80;47.00
65038;DHT22;51605;47.040;15.294;2023-07-13T00:49:05;24.80;46.90
65038;DHT22;51605;47.040;15.294;2023-07-13T00:51:51;24.80;46.90
65038;DHT22;51605;47.040;15.294;2023-07-13T00:54:20;24.80;46.90
65038;DHT22;51605;47.040;15.294;2023-07-13T00:56:48;24.80;46.90
65038;DHT22;51605;47.040;15.294;2023-07-13T00:59:14;24.80;46.90
65038;DHT22;51605;47.040;15.294;2023-07-13T01:01:40;24.70;46.80
65038;DHT22;51605;47.040;15.294;2023-07-13T01:04:06;24.80;46.90
65038;DHT22;51605;47.040;15.294;2023-07-13T01:06:34;24.80;46.90
65038;DHT22;51605;47.040;15.294;2023-07-13T01:09:00;24.80;46.80
65038;DHT22;51605;47.040;15.294;2023-07-13T01:11:26;24.80;46.80
65038;DHT22;51605;47.040;15.294;2023-07-13T01:13:52;24.80;46.90
65038;DHT22;51605;47.040;15.294;2023-07-13T01:16:26;24.80;46.80
65038;DHT22;51605;47.040;15.294;2023-07-13T01:18:53;24.80;46.90
65038;DHT22;51605;47.040;15.294;2023-07-13T01:21:18;24.80;46.90
65038;DHT22;51605;47.040;15.294;2023-07-13T01:23:44;24.80;46.90
65038;DHT22;51605;47.040;15.294;2023-07-13T01:26:10;24.80;46.90
65038;DHT22;51605;47.040;15.294;2023-07-13T01:28:35;24.80;46.80
65038;DHT22;51605;47.040;15.294;2023-07-13T01:31:02;24.80;46.80
65038;DHT22;51605;47.040;15.294;2023-07-13T01:33:27;24.80;46.90
65038;DHT22;51605;47.040;15.294;2023-07-13T01:35:53;24.80;46.90
65038;DHT22;51605;47.040;15.294;2023-07-13T01:38:20;24.80;46.90
65038;DHT22;51605;47.040;15.294;2023-07-13T01:40:46;24.80;46.90
65038;DHT22;51605;47.040;15.294;2023-07-13T01:43:12;24.80;46.90
65038;DHT22;51605;47.040;15.294;2023-07-13T01:45:38;24.80;46.90
65038;DHT22;51605;47.040;15.294;2023-07-13T01:48:03;24.80;47.00
65038;DHT22;51605;47.040;15.294;2023-07-13T01:50:32;24.80;46.90
65038;DHT22;51605;47.040;15.294;2023-07-13T01:52:57;24.80;47.00
65038;DHT22;51605;47.040;15.294;2023-07-13T01:55:23;24.80;47.00
65038;DHT22;51605;47.040;15.294;2023-07-13T01:57:49;24.80;47.00
65038;DHT22;51605;47.040;15.294;2023-07-13T02:00:14;24.80;47.00
65038;DHT22;51605;47.040;15.294;2023-07-13T02:02:40;24.80;47.00
65038;DHT22;51605;47.040;15.294;2023-07-13T02:05:06;24.80;47.00
65038;DHT22;51605;47.040;15.294;2023-07-13T02:07:31;24.80;47.10
65038;DHT22;51605;47.040;15.294;2023-07-13T02:09:57;24.80;47.10
65038;DHT22;51605;47.040;15.294;2023-07-13T02:12:23;24.80;47.00
65038;DHT22;51605;47.040;15.294;2023-07-13T02:14:49;24.80;47.00
65038;DHT22;51605;47.040;15.294;2023-07-13T02:17:15;24.80;47.00
65038;DHT22;51605;47.040;15.294;2023-07-13T02:19:40;24.80;47.00
65038;DHT22;51605;47.040;15.294;2023-07-13T02:22:06;24.80;47.10
65038;DHT22;51605;47.040;15.294;2023-07-13T02:24:31;24.80;47.10
65038;DHT22;51605;47.040;15.294;2023-07-13T02:26:57;24.80;47.10
65038;DHT22;51605;47.040;15.294;2023-07-13T02:29:23;24.80;47.10
65038;DHT22;51605;47.040;15.294;2023-07-13T02:31:48;24.80;47.00
65038;DHT22;51605;47.040;15.294;2023-07-13T02:34:14;24.80;47.00
65038;DHT22;51605;47.040;15.294;2023-07-13T02:36:39;24.80;47.00
65038;DHT22;51605;47.040;15.294;2023-07-13T02:39:05;24.80;47.00
65038;DHT22;51605;47.040;15.294;2023-07-13T02:41:31;24.80;47.00
65038;DHT22;51605;47.040;15.294;2023-07-13T02:43:59;24.80;47.00
65038;DHT22;51605;47.040;15.294;2023-07-13T02:46:29;24.80;47.00
65038;DHT22;51605;47.040;15.294;2023-07-13T02:48:55;24.80;47.10
65038;DHT22;51605;47.040;15.294;2023-07-13T02:51:20;24.80;47.00
65038;DHT22;51605;47.040;15.294;2023-07-13T02:53:46;24.80;47.00
65038;DHT22;51605;47.040;15.294;2023-07-13T02:56:11;24.80;47.00
65038;DHT22;51605;47.040;15.294;2023-07-13T02:58:37;24.80;47.10
65038;DHT22;51605;47.040;15.294;2023-07-13T03:01:08;24.80;47.10
65038;DHT22;51605;47.040;15.294;2023-07-13T03:03:33;24.80;47.10
65038;DHT22;51605;47.040;15.294;2023-07-13T03:06:00;24.80;47.10
65038;DHT22;51605;47.040;15.294;2023-07-13T03:08:27;24.80;47.10
65038;DHT22;51605;47.040;15.294;2023-07-13T03:11:26;24.80;47.00
65038;DHT22;51605;47.040;15.294;2023-07-13T03:13:44;24.80;47.50
65038;DHT22;51605;47.040;15.294;2023-07-13T03:16:10;24.80;47.10
65038;DHT22;51605;47.040;15.294;2023-07-13T03:18:37;24.80;47.10
65038;DHT22;51605;47.040;15.294;2023-07-13T03:21:03;24.70;47.20
65038;DHT22;51605;47.040;15.294;2023-07-13T03:23:29;24.80;47.20
65038;DHT22;51605;47.040;15.294;2023-07-13T03:26:04;24.80;47.20
65038;DHT22;51605;47.040;15.294;2023-07-13T03:28:30;24.80;47.10
65038;DHT22;51605;47.040;15.294;2023-07-13T03:31:06;24.80;47.10
65038;DHT22;51605;47.040;15.294;2023-07-13T03:33:32;24.80;47.10
65038;DHT22;51605;47.040;15.294;2023-07-13T03:35:58;24.80;47.10
65038;DHT22;51605;47.040;15.294;2023-07-13T03:38:23;24.80;47.10
65038;DHT22;51605;47.040;15.294;2023-07-13T03:40:49;24.80;47.30
65038;DHT22;51605;47.040;15.294;2023-07-13T03:43:14;24.70;47.30
65038;DHT22;51605;47.040;15.294;2023-07-13T03:45:40;24.80;47.30
65038;DHT22;51605;47.040;15.294;2023-07-13T03:48:06;24.80;47.30
65038;DHT22;51605;47.040;15.294;2023-07-13T03:50:31;24.70;47.20
65038;DHT22;51605;47.040;15.294;2023-07-13T03:52:57;24.80;47.30
65038;DHT22;51605;47.040;15.294;2023-07-13T03:55:23;24.80;47.30
65038;DHT22;51605;47.040;15.294;2023-07-13T03:57:53;24.80;47.30
65038;DHT22;51605;47.040;15.294;2023-07-13T04:00:19;24.80;47.20
65038;DHT22;51605;47.040;15.294;2023-07-13T04:02:44;24.80;47.20
65038;DHT22;51605;47.040;15.294;2023-07-13T04:05:12;24.80;47.20
65038;DHT22;51605;47.040;15.294;2023-07-13T04:07:38;24.80;47.20
65038;DHT22;51605;47.040;15.294;2023-07-13T04:10:03;24.80;47.20
65038;DHT22;51605;47.040;15.294;2023-07-13T04:12:29;24.80;47.20
65038;DHT22;51605;47.040;15.294;2023-07-13T04:14:55;24.80;47.30
65038;DHT22;51605;47.040;15.294;2023-07-13T04:17:20;24.80;47.30
65038;DHT22;51605;47.040;15.294;2023-07-13T04:19:46;24.80;47.30
65038;DHT22;51605;47.040;15.294;2023-07-13T04:22:11;24.70;47.30
65038;DHT22;51605;47.040;15.294;2023-07-13T04:24:37;24.70;47.30
65038;DHT22;51605;47.040;15.294;2023-07-13T04:27:03;24.70;47.30
65038;DHT22;51605;47.040;15.294;2023-07-13T04:29:29;24.80;47.40
65038;DHT22;51605;47.040;15.294;2023-07-13T04:31:55;24.70;47.30
65038;DHT22;51605;47.040;15.294;2023-07-13T04:34:21;24.70;47.30
65038;DHT22;51605;47.040;15.294;2023-07-13T04:36:46;24.70;47.30
65038;DHT22;51605;47.040;15.294;2023-07-13T04:39:12;24.70;47.30
65038;DHT22;51605;47.040;15.294;2023-07-13T04:41:38;24.70;47.30
65038;DHT22;51605;47.040;15.294;2023-07-13T04:44:04;24.70;48.30
65038;DHT22;51605;47.040;15.294;2023-07-13T04:46:29;24.80;47.40
65038;DHT22;51605;47.040;15.294;2023-07-13T04:48:55;24.80;47.30
65038;DHT22;51605;47.040;15.294;2023-07-13T04:51:20;24.80;47.30
65038;DHT22;51605;47.040;15.294;2023-07-13T04:53:46;24.80;47.30
65038;DHT22;51605;47.040;15.294;2023-07-13T04:56:11;24.70;47.20
65038;DHT22;51605;47.040;15.294;2023-07-13T04:58:37;24.80;47.30
65038;DHT22;51605;47.040;15.294;2023-07-13T05:01:03;24.80;47.30
65038;DHT22;51605;47.040;15.294;2023-07-13T05:03:29;24.70;47.30
65038;DHT22;51605;47.040;15.294;2023-07-13T05:05:56;24.70;47.30
65038;DHT22;51605;47.040;15.294;2023-07-13T05:08:21;24.70;47.30
65038;DHT22;51605;47.040;15.294;2023-07-13T05:10:47;24.80;47.30
65038;DHT22;51605;47.040;15.294;2023-07-13T05:13:12;24.80;47.30
65038;DHT22;51605;47.040;15.294;2023-07-13T05:15:38;24.70;47.20
65038;DHT22;51605;47.040;15.294;2023-07-13T05:18:03;24.70;47.30
65038;DHT22;51605;47.040;15.294;2023-07-13T05:20:29;24.80;47.30
65038;DHT22;51605;47.040;15.294;2023-07-13T05:22:54;24.80;47.30
65038;DHT22;51605;47.040;15.294;2023-07-13T05:25:20;24.70;47.30
65038;DHT22;51605;47.040;15.294;2023-07-13T05:27:45;24.80;47.30
65038;DHT22;51605;47.040;15.294;2023-07-13T05:30:12;24.80;47.30
65038;DHT22;51605;47.040;15.294;2023-07-13T05:32:38;24.80;47.30
65038;DHT22;51605;47.040;15.294;2023-07-13T05:35:04;24.80;47.30
65038;DHT22;51605;47.040;15.294;2023-07-13T05:37:29;24.80;47.30
65038;DHT22;51605;47.040;15.294;2023-07-13T05:39:55;24.80;47.30
65038;DHT22;51605;47.040;15.294;2023-07-13T05:42:20;24.80;47.30
65038;DHT22;51605;47.040;15.294;2023-07-13T05:44:46;24.70;47.30
65038;DHT22;51605;47.040;15.294;2023-07-13T05:47:11;24.70;47.30
65038;DHT22;51605;47.040;15.294;2023-07-13T05:49:39;24.80;47.40
65038;DHT22;51605;47.040;15.294;2023-07-13T05:52:05;24.80;48.30
65038;DHT22;51605;47.040;15.294;2023-07-13T05:54:30;24.70;47.20
65038;DHT22;51605;47.040;15.294;2023-07-13T05:56:56;24.70;47.20
65038;DHT22;51605;47.040;15.294;2023-07-13T05:59:22;24.70;47.30
65038;DHT22;51605;47.040;15.294;2023-07-13T06:01:48;24.70;47.30
65038;DHT22;51605;47.040;15.294;2023-07-13T06:04:14;24.70;47.30
65038;DHT22;51605;47.040;15.294;2023-07-13T06:06:39;24.70;47.40
65038;DHT22;51605;47.040;15.294;2023-07-13T06:09:05;24.80;47.40
65038;DHT22;51605;47.040;15.294;2023-07-13T06:11:30;24.80;47.40
65038;DHT22;51605;47.040;15.294;2023-07-13T06:13:56;24.80;47.40
65038;DHT22;51605;47.040;15.294;2023-07-13T06:16:22;24.70;47.70
65038;DHT22;51605;47.040;15.294;2023-07-13T06:18:47;24.80;47.40
65038;DHT22;51605;47.040;15.294;2023-07-13T06:21:18;24.80;47.40
65038;DHT22;51605;47.040;15.294;2023-07-13T06:23:44;24.70;47.30
65038;DHT22;51605;47.040;15.294;2023-07-13T06:26:10;24.80;47.40
65038;DHT22;51605;47.040;15.294;2023-07-13T06:28:36;24.70;47.50
65038;DHT22;51605;47.040;15.294;2023-07-13T06:31:04;24.70;47.40
65038;DHT22;51605;47.040;15.294;2023-07-13T06:33:30;24.70;47.40
65038;DHT22;51605;47.040;15.294;2023-07-13T06:35:55;24.70;47.50
65038;DHT22;51605;47.040;15.294;2023-07-13T06:38:21;24.70;47.50
65038;DHT22;51605;47.040;15.294;2023-07-13T06:40:46;24.70;47.50
65038;DHT22;51605;47.040;15.294;2023-07-13T06:43:12;24.80;47.50
65038;DHT22;51605;47.040;15.294;2023-07-13T06:45:44;24.80;47.40
65038;DHT22;51605;47.040;15.294;2023-07-13T06:48:17;24.80;47.40
65038;DHT22;51605;47.040;15.294;2023-07-13T06:50:43;24.70;47.30
65038;DHT22;51605;47.040;15.294;2023-07-13T06:53:09;24.80;47.40
65038;DHT22;51605;47.040;15.294;2023-07-13T06:55:35;24.80;47.40
65038;DHT22;51605;47.040;15.294;2023-07-13T06:58:00;24.80;47.40
65038;DHT22;51605;47.040;15.294;2023-07-13T07:00:26;24.80;47.40
65038;DHT22;51605;47.040;15.294;2023-07-13T07:02:51;24.70;47.40
65038;DHT22;51605;47.040;15.294;2023-07-13T07:05:17;24.80;47.50
65038;DHT22;51605;47.040;15.294;2023-07-13T07:07:42;24.80;47.40
65038;DHT22;51605;47.040;15.294;2023-07-13T07:10:08;24.80;47.40
65038;DHT22;51605;47.040;15.294;2023-07-13T07:12:33;24.70;47.50
65038;DHT22;51605;47.040;15.294;2023-07-13T07:14:59;24.70;48.30
65038;DHT22;51605;47.040;15.294;2023-07-13T07:17:25;24.80;47.40
65038;DHT22;51605;47.040;15.294;2023-07-13T07:19:51;24.80;47.50
65038;DHT22;51605;47.040;15.294;2023-07-13T07:22:19;24.70;47.40
65038;DHT22;51605;47.040;15.294;2023-07-13T07:24:45;24.70;47.50
65038;DHT22;51605;47.040;15.294;2023-07-13T07:27:10;24.70;47.50
65038;DHT22;51605;47.040;15.294;2023-07-13T07:29:36;24.70;47.50
65038;DHT22;51605;47.040;15.294;2023-07-13T07:32:01;24.70;47.40
65038;DHT22;51605;47.040;15.294;2023-07-13T07:34:27;24.70;47.50
65038;DHT22;51605;47.040;15.294;2023-07-13T07:36:53;24.70;47.50
65038;DHT22;51605;47.040;15.294;2023-07-13T07:39:19;24.70;47.60
65038;DHT22;51605;47.040;15.294;2023-07-13T07:41:44;24.70;47.60
65038;DHT22;51605;47.040;15.294;2023-07-13T07:44:10;24.70;47.60
65038;DHT22;51605;47.040;15.294;2023-07-13T07:46:35;24.70;47.50
65038;DHT22;51605;47.040;15.294;2023-07-13T07:49:01;24.70;47.50
65038;DHT22;51605;47.040;15.294;2023-07-13T07:51:27;24.70;47.40
65038;DHT22;51605;47.040;15.294;2023-07-13T07:53:53;24.70;47.50
65038;DHT22;51605;47.040;15.294;2023-07-13T07:56:18;24.70;47.40
65038;DHT22;51605;47.040;15.294;2023-07-13T07:58:44;24.70;47.50
65038;DHT22;51605;47.040;15.294;2023-07-13T08:01:09;24.70;47.50
65038;DHT22;51605;47.040;15.294;2023-07-13T08:03:35;24.70;47.50
65038;DHT22;51605;47.040;15.294;2023-07-13T08:06:01;24.70;47.50
65038;DHT22;51605;47.040;15.294;2023-07-13T08:08:26;24.70;47.50
65038;DHT22;51605;47.040;15.294;2023-07-13T08:10:52;24.70;48.30
65038;DHT22;51605;47.040;15.294;2023-07-13T08:13:18;24.80;47.40
65038;DHT22;51605;47.040;15.294;2023-07-13T08:15:43;24.70;47.30
65038;DHT22;51605;47.040;15.294;2023-07-13T08:18:09;24.80;47.40
65038;DHT22;51605;47.040;15.294;2023-07-13T08:20:38;24.80;47.30
65038;DHT22;51605;47.040;15.294;2023-07-13T08:23:04;24.80;47.30
65038;DHT22;51605;47.040;15.294;2023-07-13T08:25:29;24.80;47.30
65038;DHT22;51605;47.040;15.294;2023-07-13T08:27:55;24.70;47.30
65038;DHT22;51605;47.040;15.294;2023-07-13T08:30:20;24.70;47.30
65038;DHT22;51605;47.040;15.294;2023-07-13T08:32:46;24.70;47.30
65038;DHT22;51605;47.040;15.294;2023-07-13T08:35:11;24.70;47.30
65038;DHT22;51605;47.040;15.294;2023-07-13T08:37:38;24.80;47.30
65038;DHT22;51605;47.040;15.294;2023-07-13T08:40:04;24.70;47.30
65038;DHT22;51605;47.040;15.294;2023-07-13T08:42:36;24.70;47.40
65038;DHT22;51605;47.040;15.294;2023-07-13T08:47:29;24.70;47.30
65038;DHT22;51605;47.040;15.294;2023-07-13T08:49:55;24.80;47.40
65038;DHT22;51605;47.040;15.294;2023-07-13T08:54:49;24.70;47.40
65038;DHT22;51605;47.040;15.294;2023-07-13T08:57:18;24.70;47.40
65038;DHT22;51605;47.040;15.294;2023-07-13T08:59:44;24.70;47.40
65038;DHT22;51605;47.040;15.294;2023-07-13T09:02:32;24.70;47.50
65038;DHT22;51605;47.040;15.294;2023-07-13T09:14:54;24.70;47.50
65038;DHT22;51605;47.040;15.294;2023-07-13T09:17:28;24.70;47.40
65038;DHT22;51605;47.040;15.294;2023-07-13T09:20:04;24.70;47.40
65038;DHT22;51605;47.040;15.294;2023-07-13T09:22:34;24.70;47.50
65038;DHT22;51605;47.040;15.294;2023-07-13T09:25:19;24.70;47.50
65038;DHT22;51605;47.040;15.294;2023-07-13T09:27:46;24.70;47.40
65038;DHT22;51605;47.040;15.294;2023-07-13T09:32:39;24.70;47.40
65038;DHT22;51605;47.040;15.294;2023-07-13T09:35:12;24.70;47.50
65038;DHT22;51605;47.040;15.294;2023-07-13T09:37:39;24.70;47.50
65038;DHT22;51605;47.040;15.294;2023-07-13T09:40:11;24.70;47.40
65038;DHT22;51605;47.040;15.294;2023-07-13T09:42:38;24.70;47.40
65038;DHT22;51605;47.040;15.294;2023-07-13T09:45:04;24.70;47.50
65038;DHT22;51605;47.040;15.294;2023-07-13T09:47:32;24.70;47.60
65038;DHT22;51605;47.040;15.294;2023-07-13T09:49:59;24.70;47.50
65038;DHT22;51605;47.040;15.294;2023-07-13T09:52:25;24.70;47.50
65038;DHT22;51605;47.040;15.294;2023-07-13T09:54:53;24.70;47.50
65038;DHT22;51605;47.040;15.294;2023-07-13T09:57:24;24.70;47.40
65038;DHT22;51605;47.040;15.294;2023-07-13T09:59:52;24.70;47.50
65038;DHT22;51605;47.040;15.294;2023-07-13T10:02:29;24.70;47.50
65038;DHT22;51605;47.040;15.294;2023-07-13T10:05:02;24.70;47.50
65038;DHT22;51605;47.040;15.294;2023-07-13T10:07:29;24.70;47.40
65038;DHT22;51605;47.040;15.294;2023-07-13T10:09:55;24.70;47.50
65038;DHT22;51605;47.040;15.294;2023-07-13T10:12:21;24.70;47.40
65038;DHT22;51605;47.040;15.294;2023-07-13T10:14:48;24.70;47.40
65038;DHT22;51605;47.040;15.294;2023-07-13T10:17:15;24.70;47.30
65038;DHT22;51605;47.040;15.294;2023-07-13T10:19:44;24.80;47.40
65038;DHT22;51605;47.040;15.294;2023-07-13T10:22:14;24.70;47.30
65038;DHT22;51605;47.040;15.294;2023-07-13T10:24:44;24.70;47.30
65038;DHT22;51605;47.040;15.294;2023-07-13T10:27:18;24.70;47.40
65038;DHT22;51605;47.040;15.294;2023-07-13T10:32:12;24.70;47.50
65038;DHT22;51605;47.040;15.294;2023-07-13T10:34:38;24.70;47.40
65038;DHT22;51605;47.040;15.294;2023-07-13T10:37:05;24.70;47.40
65038;DHT22;51605;47.040;15.294;2023-07-13T10:39:31;24.70;47.50
65038;DHT22;51605;47.040;15.294;2023-07-13T10:41:59;24.70;47.40
65038;DHT22;51605;47.040;15.294;2023-07-13T10:44:28;24.70;47.40
65038;DHT22;51605;47.040;15.294;2023-07-13T10:46:55;24.70;47.50
65038;DHT22;51605;47.040;15.294;2023-07-13T10:49:21;24.70;47.50
65038;DHT22;51605;47.040;15.294;2023-07-13T10:51:47;24.70;47.40
65038;DHT22;51605;47.040;15.294;2023-07-13T10:54:17;24.70;47.40
65038;DHT22;51605;47.040;15.294;2023-07-13T10:56:43;24.70;47.50
65038;DHT22;51605;47.040;15.294;2023-07-13T11:01:46;24.70;47.40
65038;DHT22;51605;47.040;15.294;2023-07-13T11:04:13;24.70;47.40
65038;DHT22;51605;47.040;15.294;2023-07-13T11:06:40;24.70;47.40
65038;DHT22;51605;47.040;15.294;2023-07-13T11:09:17;24.70;47.40
65038;DHT22;51605;47.040;15.294;2023-07-13T11:11:43;24.70;47.40
65038;DHT22;51605;47.040;15.294;2023-07-13T11:16:53;24.70;47.50
65038;DHT22;51605;47.040;15.294;2023-07-13T11:22:10;24.70;47.40
65038;DHT22;51605;47.040;15.294;2023-07-13T11:24:50;24.70;47.50
65038;DHT22;51605;47.040;15.294;2023-07-13T11:27:36;24.70;47.50
65038;DHT22;51605;47.040;15.294;2023-07-13T11:30:13;24.70;47.50
65038;DHT22;51605;47.040;15.294;2023-07-13T11:32:42;24.70;47.50
65038;DHT22;51605;47.040;15.294;2023-07-13T11:35:20;24.70;47.50
65038;DHT22;51605;47.040;15.294;2023-07-13T11:37:46;24.70;47.40
65038;DHT22;51605;47.040;15.294;2023-07-13T11:40:13;24.70;47.50
65038;DHT22;51605;47.040;15.294;2023-07-13T11:42:39;24.70;47.50
65038;DHT22;51605;47.040;15.294;2023-07-13T11:45:14;24.70;47.50
65038;DHT22;51605;47.040;15.294;2023-07-13T11:47:45;24.70;47.60
65038;DHT22;51605;47.040;15.294;2023-07-13T11:50:20;24.70;47.50
65038;DHT22;51605;47.040;15.294;2023-07-13T11:52:46;24.70;47.50
65038;DHT22;51605;47.040;15.294;2023-07-13T11:55:14;24.70;47.50
65038;DHT22;51605;47.040;15.294;2023-07-13T11:58:02;24.70;47.50
65038;DHT22;51605;47.040;15.294;2023-07-13T12:00:30;24.70;47.50
65038;DHT22;51605;47.040;15.294;2023-07-13T12:02:59;24.70;47.50
65038;DHT22;51605;47.040;15.294;2023-07-13T12:05:25;24.70;47.50
65038;DHT22;51605;47.040;15.294;2023-07-13T12:07:51;24.70;47.50
65038;DHT22;51605;47.040;15.294;2023-07-13T12:10:24;24.70;47.60
65038;DHT22;51605;47.040;15.294;2023-07-13T12:13:05;24.70;47.60
65038;DHT22;51605;47.040;15.294;2023-07-13T12:15:43;24.70;47.60
65038;DHT22;51605;47.040;15.294;2023-07-13T12:18:19;24.60;48.60
65038;DHT22;51605;47.040;15.294;2023-07-13T12:20:45;24.70;47.70
65038;DHT22;51605;47.040;15.294;2023-07-13T12:23:22;24.70;47.60
65038;DHT22;51605;47.040;15.294;2023-07-13T12:25:57;24.60;47.60
65038;DHT22;51605;47.040;15.294;2023-07-13T12:30:58;24.70;47.60
65038;DHT22;51605;47.040;15.294;2023-07-13T12:33:27;24.70;47.60
65038;DHT22;51605;47.040;15.294;2023-07-13T12:35:53;24.60;47.50
65038;DHT22;51605;47.040;15.294;2023-07-13T12:38:19;24.70;47.60
65038;DHT22;51605;47.040;15.294;2023-07-13T12:40:51;24.70;47.50
65038;DHT22;51605;47.040;15.294;2023-07-13T12:43:17;24.70;47.50
65038;DHT22;51605;47.040;15.294;2023-07-13T12:48:42;24.70;47.50
65038;DHT22;51605;47.040;15.294;2023-07-13T12:51:11;24.60;47.50
65038;DHT22;51605;47.040;15.294;2023-07-13T12:53:41;24.70;47.70
65038;DHT22;51605;47.040;15.294;2023-07-13T12:56:08;24.70;47.70
65038;DHT22;51605;47.040;15.294;2023-07-13T12:58:36;24.70;47.60
65038;DHT22;51605;47.040;15.294;2023-07-13T13:01:02;24.70;47.60
65038;DHT22;51605;47.040;15.294;2023-07-13T13:06:02;24.70;47.60
65038;DHT22;51605;47.040;15.294;2023-07-13T13:08:29;24.70;47.60
65038;DHT22;51605;47.040;15.294;2023-07-13T13:10:54;24.70;47.70
65038;DHT22;51605;47.040;15.294;2023-07-13T13:13:20;24.70;47.70
65038;DHT22;51605;47.040;15.294;2023-07-13T13:15:45;24.70;47.60
65038;DHT22;51605;47.040;15.294;2023-07-13T13:18:21;24.70;47.60
65038;DHT22;51605;47.040;15.294;2023-07-13T13:20:47;24.70;47.60
65038;DHT22;51605;47.040;15.294;2023-07-13T13:23:13;24.70;47.50
65038;DHT22;51605;47.040;15.294;2023-07-13T13:25:41;24.70;47.60
65038;DHT22;51605;47.040;15.294;2023-07-13T13:28:11;24.70;47.70
65038;DHT22;51605;47.040;15.294;2023-07-13T13:30:39;24.70;47.60
65038;DHT22;51605;47.040;15.294;2023-07-13T13:33:08;24.70;47.60
65038;DHT22;51605;47.040;15.294;2023-07-13T13:35:34;24.70;47.60
65038;DHT22;51605;47.040;15.294;2023-07-13T13:38:00;24.70;47.60
65038;DHT22;51605;47.040;15.294;2023-07-13T13:40:25;24.70;47.60
65038;DHT22;51605;47.040;15.294;2023-07-13T13:42:53;24.70;47.60
65038;DHT22;51605;47.040;15.294;2023-07-13T13:45:20;24.70;47.70
65038;DHT22;51605;47.040;15.294;2023-07-13T13:47:46;24.70;47.70
65038;DHT22;51605;47.040;15.294;2023-07-13T13:52:40;24.70;47.70
65038;DHT22;51605;47.040;15.294;2023-07-13T13:55:16;24.70;47.70
65038;DHT22;51605;47.040;15.294;2023-07-13T13:57:44;24.70;47.70
65038;DHT22;51605;47.040;15.294;2023-07-13T14:00:10;24.70;47.80
65038;DHT22;51605;47.040;15.294;2023-07-13T14:02:46;24.60;47.80
65038;DHT22;51605;47.040;15.294;2023-07-13T14:05:13;24.60;47.80
65038;DHT22;51605;47.040;15.294;2023-07-13T14:07:40;24.70;47.70
65038;DHT22;51605;47.040;15.294;2023-07-13T14:10:10;24.70;48.60
65038;DHT22;51605;47.040;15.294;2023-07-13T14:12:36;24.70;47.70
65038;DHT22;51605;47.040;15.294;2023-07-13T14:15:01;24.70;47.70
65038;DHT22;51605;47.040;15.294;2023-07-13T14:17:28;24.70;47.80
65038;DHT22;51605;47.040;15.294;2023-07-13T14:19:53;24.70;47.70
65038;DHT22;51605;47.040;15.294;2023-07-13T14:22:26;24.70;47.80
65038;DHT22;51605;47.040;15.294;2023-07-13T14:24:55;24.70;47.80
65038;DHT22;51605;47.040;15.294;2023-07-13T14:27:22;24.60;47.80
65038;DHT22;51605;47.040;15.294;2023-07-13T14:29:48;24.70;47.80
65038;DHT22;51605;47.040;15.294;2023-07-13T14:32:14;24.70;47.90
65038;DHT22;51605;47.040;15.294;2023-07-13T14:34:39;24.70;47.80
65038;DHT22;51605;47.040;15.294;2023-07-13T14:37:05;24.70;47.80
65038;DHT22;51605;47.040;15.294;2023-07-13T14:39:33;24.70;47.80
65038;DHT22;51605;47.040;15.294;2023-07-13T14:41:59;24.70;47.90
65038;DHT22;51605;47.040;15.294;2023-07-13T14:44:28;24.70;47.80
65038;DHT22;51605;47.040;15.294;2023-07-13T14:46:54;24.70;47.80
65038;DHT22;51605;47.040;15.294;2023-07-13T14:49:23;24.70;47.80
65038;DHT22;51605;47.040;15.294;2023-07-13T14:51:49;24.70;47.80
65038;DHT22;51605;47.040;15.294;2023-07-13T14:54:15;24.70;47.80
65038;DHT22;51605;47.040;15.294;2023-07-13T14:56:41;24.70;47.80
65038;DHT22;51605;47.040;15.294;2023-07-13T14:59:06;24.70;47.70
65038;DHT22;51605;47.040;15.294;2023-07-13T15:01:36;24.70;47.80
65038;DHT22;51605;47.040;15.294;2023-07-13T15:04:02;24.70;48.70
65038;DHT22;51605;47.040;15.294;2023-07-13T15:06:28;24.70;47.80
65038;DHT22;51605;47.040;15.294;2023-07-13T15:08:54;24.70;47.80
65038;DHT22;51605;47.040;15.294;2023-07-13T15:11:20;24.70;47.80
65038;DHT22;51605;47.040;15.294;2023-07-13T15:13:47;24.70;47.80
65038;DHT22;51605;47.040;15.294;2023-07-13T15:16:23;24.70;47.80
65038;DHT22;51605;47.040;15.294;2023-07-13T15:18:49;24.60;47.80
65038;DHT22;51605;47.040;15.294;2023-07-13T15:21:20;24.60;47.80
65038;DHT22;51605;47.040;15.294;2023-07-13T15:23:46;24.70;47.80
65038;DHT22;51605;47.040;15.294;2023-07-13T15:26:13;24.70;47.80
65038;DHT22;51605;47.040;15.294;2023-07-13T15:28:40;24.70;47.80
65038;DHT22;51605;47.040;15.294;2023-07-13T15:31:11;24.60;47.80
65038;DHT22;51605;47.040;15.294;2023-07-13T15:33:41;24.70;47.80
65038;DHT22;51605;47.040;15.294;2023-07-13T15:36:07;24.70;47.60
65038;DHT22;51605;47.040;15.294;2023-07-13T15:38:32;24.70;47.70
65038;DHT22;51605;47.040;15.294;2023-07-13T15:41:00;24.70;47.70
65038;DHT22;51605;47.040;15.294;2023-07-13T15:43:25;24.70;47.80
65038;DHT22;51605;47.040;15.294;2023-07-13T15:45:51;24.60;47.80
65038;DHT22;51605;47.040;15.294;2023-07-13T15:48:17;24.70;47.80
65038;DHT22;51605;47.040;15.294;2023-07-13T15:50:50;24.70;47.80
65038;DHT22;51605;47.040;15.294;2023-07-13T15:53:19;24.70;47.80